Time;durP1;ratioP1;P1;durP2;ratioP2;P2;SDS_P1;SDS_P2;PMS_P1;PMS_P2;Temp;Humidity;BMP_temperature;BMP_pressure;BME280_temperature;BME280_humidity;BME280_pressure;Samples;Min_cycle;Max_cycle;Signal;HPM_P1;HPM_P2
2023/06/13 00:01:13;;;;;;;;;;;;;;;22.26;29.91;97475.91;5019580;28;943;-76
2023/06/13 00:03:39;;;;;;;;;;;;;;;22.21;30.04;97471.63;4986210;28;985;-76
2023/06/13 00:06:05;;;;;;;;;;;;;;;21.99;30.39;97468.78;5003505;28;1914;-76
2023/06/13 00:08:31;;;;;;;;;;;;;;;22.02;30.05;97473.53;5002120;28;1127;-76
2023/06/13 00:10:57;;;;;;;;;;;;;;;22.18;29.94;97468.94;4986773;28;989;-76
2023/06/13 00:13:25;;;;;;;;;;;;;;;22.21;29.82;97468.78;5002084;28;1629;-76
2023/06/13 00:15:51;;;;;;;;;;;;;;;22.05;30.29;97466.91;5034991;28;1110;-76
2023/06/13 00:18:20;;;;;;;;;;;;;;;22.07;30.05;97469.28;5021828;28;1260;-76
2023/06/13 00:20:49;;;;;;;;;;;;;;;22.04;29.92;97464.56;5023371;28;1280;-76
2023/06/13 00:23:15;;;;;;;;;;;;;;;22.15;29.95;97464.97;5022443;28;1097;-76
2023/06/13 00:25:40;;;;;;;;;;;;;;;22.03;29.71;97463.78;5041131;28;1967;-77
2023/06/13 00:28:06;;;;;;;;;;;;;;;22.10;29.76;97463.53;5039314;28;1114;-76
2023/06/13 00:30:31;;;;;;;;;;;;;;;22.22;29.69;97456.19;5023489;28;1172;-77
2023/06/13 00:32:57;;;;;;;;;;;;;;;22.16;29.80;97460.88;5022906;28;1144;-76
2023/06/13 00:35:22;;;;;;;;;;;;;;;22.11;29.81;97464.31;5039293;28;1003;-76
2023/06/13 00:37:50;;;;;;;;;;;;;;;22.06;29.76;97456.38;5018231;28;899;-76
2023/06/13 00:40:17;;;;;;;;;;;;;;;21.98;29.86;97460.75;4985740;28;1205;-76
2023/06/13 00:42:42;;;;;;;;;;;;;;;22.06;29.65;97460.00;5001760;28;1163;-76
2023/06/13 00:45:26;;;;;;;;;;;;;;;22.01;29.57;97454.13;5002027;28;1985;-76
2023/06/13 00:47:54;;;;;;;;;;;;;;;21.85;29.97;97453.06;4985584;28;1509;-76
2023/06/13 00:50:21;;;;;;;;;;;;;;;22.01;29.78;97446.44;4982339;28;989;-76
2023/06/13 00:52:47;;;;;;;;;;;;;;;21.90;30.15;97453.75;4966210;28;1171;-76
2023/06/13 00:55:14;;;;;;;;;;;;;;;22.00;29.81;97452.56;4965884;28;1136;-76
2023/06/13 00:57:40;;;;;;;;;;;;;;;21.90;30.05;97448.88;4943397;29;951;-75
2023/06/13 01:00:05;;;;;;;;;;;;;;;21.88;29.85;97453.44;4927789;29;1064;-77
2023/06/13 01:02:33;;;;;;;;;;;;;;;21.98;29.86;97452.25;4959790;29;933;-76
2023/06/13 01:04:58;;;;;;;;;;;;;;;22.08;29.69;97456.72;4943984;29;1980;-77
2023/06/13 01:07:29;;;;;;;;;;;;;;;22.00;29.80;97453.34;4943872;29;1100;-76
2023/06/13 01:09:55;;;;;;;;;;;;;;;22.01;29.74;97448.47;4939427;29;1118;-77
2023/06/13 01:12:27;;;;;;;;;;;;;;;21.93;29.97;97447.16;4924318;29;1170;-76
2023/06/13 01:15:02;;;;;;;;;;;;;;;21.90;29.99;97459.41;4905417;29;1109;-76
2023/06/13 01:17:33;;;;;;;;;;;;;;;21.94;29.97;97451.56;4865187;29;1423;-76
2023/06/13 01:19:59;;;;;;;;;;;;;;;21.81;30.01;97449.59;4879901;29;1118;-76
2023/06/13 01:22:38;;;;;;;;;;;;;;;21.98;29.79;97446.56;4865091;29;1240;-77
2023/06/13 01:25:08;;;;;;;;;;;;;;;21.93;29.79;97447.16;4864244;29;1915;-76
2023/06/13 01:27:33;;;;;;;;;;;;;;;22.05;29.95;97443.47;4864743;29;1447;-76
2023/06/13 01:29:59;;;;;;;;;;;;;;;22.09;29.83;97444.13;4864242;29;1030;-76
2023/06/13 01:32:24;;;;;;;;;;;;;;;21.99;30.09;97446.09;4880566;29;1311;-76
2023/06/13 01:34:50;;;;;;;;;;;;;;;21.73;30.37;97451.09;4871944;29;956;-76
2023/06/13 01:37:16;;;;;;;;;;;;;;;22.03;30.04;97451.66;4867989;29;939;-76
2023/06/13 01:39:43;;;;;;;;;;;;;;;21.93;29.95;97452.84;4891431;29;1524;-76
2023/06/13 01:42:09;;;;;;;;;;;;;;;21.99;30.02;97439.66;4958979;29;961;-76
2023/06/13 01:44:34;;;;;;;;;;;;;;;21.89;30.03;97452.97;4958360;29;1922;-76
2023/06/13 01:47:12;;;;;;;;;;;;;;;22.03;29.72;97446.00;4975443;28;1252;-76
2023/06/13 01:49:44;;;;;;;;;;;;;;;22.09;29.95;97444.13;4983861;28;1250;-76
2023/06/13 01:52:10;;;;;;;;;;;;;;;22.01;29.93;97451.31;5015310;28;1301;-76
2023/06/13 01:54:36;;;;;;;;;;;;;;;22.03;29.76;97446.00;5036464;28;1263;-76
2023/06/13 01:57:03;;;;;;;;;;;;;;;22.00;30.06;97452.56;5020682;28;1211;-76
2023/06/13 01:59:29;;;;;;;;;;;;;;;22.12;29.79;97454.56;5020049;28;1223;-76
2023/06/13 02:01:55;;;;;;;;;;;;;;;22.21;29.48;97451.78;5020957;28;1325;-76
2023/06/13 02:04:20;;;;;;;;;;;;;;;22.06;29.85;97450.72;5019416;28;1988;-76
2023/06/13 02:06:46;;;;;;;;;;;;;;;22.09;29.80;97456.25;5020837;28;1132;-76
2023/06/13 02:09:12;;;;;;;;;;;;;;;22.08;29.80;97453.88;5019560;28;1274;-76
2023/06/13 02:11:38;;;;;;;;;;;;;;;22.06;29.78;97457.16;5020310;28;914;-76
2023/06/13 02:14:03;;;;;;;;;;;;;;;21.84;30.35;97457.16;5019492;28;1114;-76
2023/06/13 02:16:30;;;;;;;;;;;;;;;21.98;29.95;97455.06;4997130;28;1133;-76
2023/06/13 02:18:59;;;;;;;;;;;;;;;21.85;30.33;97457.94;4980636;28;1226;-76
2023/06/13 02:21:25;;;;;;;;;;;;;;;21.97;30.02;97462.78;4977646;28;1275;-77
2023/06/13 02:23:50;;;;;;;;;;;;;;;21.72;30.32;97468.56;4961194;28;1240;-76
2023/06/13 02:26:16;;;;;;;;;;;;;;;21.75;30.38;97470.44;4974943;28;1902;-76
2023/06/13 02:28:48;;;;;;;;;;;;;;;21.98;29.89;97472.88;4973043;28;1142;-77
2023/06/13 02:31:15;;;;;;;;;;;;;;;22.04;29.80;97481.56;4977575;28;1179;-77
2023/06/13 02:33:40;;;;;;;;;;;;;;;22.11;29.73;97475.66;4976953;28;950;-76
2023/06/13 02:36:06;;;;;;;;;;;;;;;22.25;29.48;97480.78;4959279;28;1077;-76
2023/06/13 02:38:31;;;;;;;;;;;;;;;21.80;30.29;97473.50;4957597;28;1246;-77
2023/06/13 02:40:59;;;;;;;;;;;;;;;21.79;30.22;97477.56;4958097;29;1216;-76
2023/06/13 02:43:25;;;;;;;;;;;;;;;21.81;30.38;97483.59;4957873;29;949;-76
2023/06/13 02:45:52;;;;;;;;;;;;;;;22.09;29.81;97483.81;4959230;29;1906;-76
2023/06/13 02:48:17;;;;;;;;;;;;;;;22.12;29.92;97488.56;4973739;28;1228;-76
2023/06/13 02:50:44;;;;;;;;;;;;;;;22.08;29.70;97487.88;4962201;28;1274;-76
2023/06/13 02:53:09;;;;;;;;;;;;;;;21.99;29.83;97490.66;4945778;29;1238;-76
2023/06/13 02:55:36;;;;;;;;;;;;;;;22.02;29.97;97489.72;4942854;29;1113;-77
2023/06/13 02:58:02;;;;;;;;;;;;;;;22.23;29.43;97491.81;4938559;29;964;-76
2023/06/13 03:00:28;;;;;;;;;;;;;;;22.20;29.73;97494.78;4923302;29;1212;-77
2023/06/13 03:03:04;;;;;;;;;;;;;;;21.81;30.45;97497.75;4934566;28;1617;-77
2023/06/13 03:05:36;;;;;;;;;;;;;;;22.00;30.25;97495.06;4961715;28;1975;-77
2023/06/13 03:08:03;;;;;;;;;;;;;;;22.04;30.23;97498.56;4964420;28;1146;-76
2023/06/13 03:10:28;;;;;;;;;;;;;;;21.91;30.41;97497.81;4980907;28;1107;-77
2023/06/13 03:12:54;;;;;;;;;;;;;;;22.03;30.26;97502.66;4980616;28;1140;-77
2023/06/13 03:15:21;;;;;;;;;;;;;;;21.90;30.11;97504.72;4980823;28;1312;-77
2023/06/13 03:17:47;;;;;;;;;;;;;;;22.04;30.29;97510.69;4981086;28;1146;-76
2023/06/13 03:20:16;;;;;;;;;;;;;;;22.08;30.04;97504.88;4980532;28;1247;-77
2023/06/13 03:22:43;;;;;;;;;;;;;;;21.83;30.25;97506.56;4964680;28;1150;-77
2023/06/13 03:25:10;;;;;;;;;;;;;;;21.85;30.44;97509.72;4979997;28;1875;-77
2023/06/13 03:27:43;;;;;;;;;;;;;;;21.90;30.61;97504.72;4965470;28;1320;-76
2023/06/13 03:30:09;;;;;;;;;;;;;;;21.77;30.58;97505.56;5034789;28;916;-76
2023/06/13 03:32:36;;;;;;;;;;;;;;;21.85;30.39;97504.06;5020988;28;843;-76
2023/06/13 03:35:02;;;;;;;;;;;;;;;22.09;30.08;97500.81;5020849;28;1262;-77
2023/06/13 03:37:29;;;;;;;;;;;;;;;21.92;30.62;97507.91;5021151;28;1721;-76
2023/06/13 03:39:54;;;;;;;;;;;;;;;22.16;29.90;97506.22;5019916;28;1345;-77
2023/06/13 03:42:20;;;;;;;;;;;;;;;22.11;30.27;97509.66;5020715;28;1365;-76
2023/06/13 03:44:49;;;;;;;;;;;;;;;22.13;30.28;97500.72;5002774;28;1902;-76
2023/06/13 03:47:15;;;;;;;;;;;;;;;22.05;30.26;97511.47;5037618;28;1218;-76
2023/06/13 03:49:40;;;;;;;;;;;;;;;22.03;30.45;97508.31;5020546;28;854;-76
2023/06/13 03:52:06;;;;;;;;;;;;;;;22.12;30.26;97516.09;5038014;28;926;-76
2023/06/13 03:54:32;;;;;;;;;;;;;;;22.23;30.11;97520.16;5006920;28;1241;-76
2023/06/13 03:56:57;;;;;;;;;;;;;;;22.13;30.34;97518.50;5023979;28;1466;-76
2023/06/13 03:59:24;;;;;;;;;;;;;;;22.06;30.43;97505.34;5023614;28;1073;-76
2023/06/13 04:01:51;;;;;;;;;;;;;;;22.00;30.73;97510.00;5024149;28;1190;-76
2023/06/13 04:04:17;;;;;;;;;;;;;;;22.14;30.61;97508.75;5023412;28;1972;-76
2023/06/13 04:06:47;;;;;;;;;;;;;;;22.24;30.38;97513.22;5023614;28;1271;-76
2023/06/13 04:09:16;;;;;;;;;;;;;;;22.22;30.49;97503.59;5039992;28;1088;-76
2023/06/13 04:11:41;;;;;;;;;;;;;;;22.05;30.97;97506.59;5041446;28;924;-77
2023/06/13 04:14:07;;;;;;;;;;;;;;;21.90;30.96;97508.34;5022836;28;1392;-76
2023/06/13 04:16:32;;;;;;;;;;;;;;;21.97;31.15;97513.00;5023948;28;1294;-76
2023/06/13 04:19:01;;;;;;;;;;;;;;;21.82;31.47;97509.88;5039656;28;1200;-76
2023/06/13 04:21:27;;;;;;;;;;;;;;;22.07;30.70;97514.63;5040331;28;1142;-76
2023/06/13 04:23:53;;;;;;;;;;;;;;;22.04;30.89;97513.50;5022909;28;1266;-76
2023/06/13 04:26:19;;;;;;;;;;;;;;;22.22;30.70;97509.25;5023389;28;1997;-76
2023/06/13 04:28:45;;;;;;;;;;;;;;;22.08;30.90;97508.50;5038991;28;1279;-76
2023/06/13 04:31:11;;;;;;;;;;;;;;;22.02;31.01;97515.19;5007958;28;1134;-76
2023/06/13 04:33:41;;;;;;;;;;;;;;;22.06;30.96;97513.03;5038781;28;1260;-76
2023/06/13 04:36:08;;;;;;;;;;;;;;;22.15;30.80;97515.97;5023771;28;1688;-77
2023/06/13 04:38:34;;;;;;;;;;;;;;;22.06;31.19;97515.88;4993109;28;1426;-76
2023/06/13 04:41:00;;;;;;;;;;;;;;;22.16;31.01;97526.06;5020207;28;1193;-76
2023/06/13 04:43:28;;;;;;;;;;;;;;;22.10;31.03;97520.19;5018839;28;987;-77
2023/06/13 04:45:55;;;;;;;;;;;;;;;22.21;30.79;97519.81;5002348;28;1998;-76
2023/06/13 04:48:25;;;;;;;;;;;;;;;22.20;30.79;97523.88;4998385;28;925;-76
2023/06/13 04:50:51;;;;;;;;;;;;;;;22.15;31.14;97523.69;4967639;28;1140;-76
2023/06/13 04:53:21;;;;;;;;;;;;;;;22.29;30.55;97532.47;4981879;28;934;-76
2023/06/13 04:55:49;;;;;;;;;;;;;;;22.36;30.65;97525.75;4982944;28;1226;-78
2023/06/13 04:58:17;;;;;;;;;;;;;;;22.35;30.66;97536.28;4982016;28;1425;-77
2023/06/13 05:00:47;;;;;;;;;;;;;;;22.31;30.53;97527.13;4982881;28;1279;-78
2023/06/13 05:03:16;;;;;;;;;;;;;;;22.13;30.96;97529.03;4982024;28;1286;-77
2023/06/13 05:05:43;;;;;;;;;;;;;;;22.16;30.80;97533.78;4998358;28;1891;-78
2023/06/13 05:08:09;;;;;;;;;;;;;;;22.23;30.83;97522.97;4981653;28;944;-77
2023/06/13 05:10:34;;;;;;;;;;;;;;;22.23;30.82;97517.31;4982679;28;913;-78
2023/06/13 05:13:01;;;;;;;;;;;;;;;22.19;31.07;97525.16;4997944;28;1345;-77
2023/06/13 05:15:26;;;;;;;;;;;;;;;22.40;30.72;97525.63;4998185;28;1637;-77
2023/06/13 05:17:54;;;;;;;;;;;;;;;22.29;30.67;97534.50;4981503;28;1255;-77
2023/06/13 05:20:22;;;;;;;;;;;;;;;22.40;30.35;97526.41;5017524;28;959;-77
2023/06/13 05:22:49;;;;;;;;;;;;;;;22.48;30.65;97527.69;5018581;28;782;-77
2023/06/13 05:25:15;;;;;;;;;;;;;;;22.20;30.90;97529.56;5002662;28;1977;-77
2023/06/13 05:27:40;;;;;;;;;;;;;;;22.40;30.46;97532.06;5019572;28;864;-77
2023/06/13 05:30:06;;;;;;;;;;;;;;;22.40;30.60;97537.75;5039353;28;1582;-77
2023/06/13 05:32:32;;;;;;;;;;;;;;;22.43;30.78;97547.34;5037964;28;1304;-78
2023/06/13 05:34:57;;;;;;;;;;;;;;;22.46;30.70;97540.78;5038656;28;1443;-78
2023/06/13 05:37:23;;;;;;;;;;;;;;;22.42;30.79;97545.78;5039578;28;933;-78
2023/06/13 05:39:48;;;;;;;;;;;;;;;22.49;30.86;97551.19;5038838;28;1053;-78
2023/06/13 05:42:14;;;;;;;;;;;;;;;22.21;31.25;97553.81;5039817;28;897;-77
2023/06/13 05:44:39;;;;;;;;;;;;;;;22.23;31.07;97557.00;5038714;28;1886;-78
2023/06/13 05:47:05;;;;;;;;;;;;;;;22.34;31.16;97560.22;5039173;28;855;-78
2023/06/13 05:49:31;;;;;;;;;;;;;;;22.31;31.07;97561.13;5039055;28;921;-77
2023/06/13 05:51:57;;;;;;;;;;;;;;;22.38;30.83;97562.91;5037982;28;951;-78
2023/06/13 05:54:22;;;;;;;;;;;;;;;22.26;30.88;97566.59;5038705;28;915;-78
2023/06/13 05:56:48;;;;;;;;;;;;;;;22.50;30.63;97569.78;5039292;28;868;-77
2023/06/13 05:59:14;;;;;;;;;;;;;;;22.42;30.58;97574.13;5037025;28;894;-78
2023/06/13 06:01:41;;;;;;;;;;;;;;;22.28;31.04;97576.25;5037548;28;881;-78
2023/06/13 06:04:07;;;;;;;;;;;;;;;22.24;31.06;97584.06;5004329;28;1139;-77
2023/06/13 06:06:32;;;;;;;;;;;;;;;22.03;31.03;97579.13;5037899;28;1898;-77
2023/06/13 06:08:58;;;;;;;;;;;;;;;22.23;30.90;97582.50;5037548;28;986;-77
2023/06/13 06:11:23;;;;;;;;;;;;;;;22.32;30.54;97576.88;5039173;28;823;-77
2023/06/13 06:13:49;;;;;;;;;;;;;;;22.55;30.25;97577.69;5036821;28;918;-77
2023/06/13 06:16:14;;;;;;;;;;;;;;;22.59;30.08;97578.38;5037788;28;972;-77
2023/06/13 06:18:41;;;;;;;;;;;;;;;22.21;30.72;97576.47;5037788;28;1018;-77
2023/06/13 06:21:06;;;;;;;;;;;;;;;21.95;31.07;97580.63;5021656;28;916;-77
2023/06/13 06:23:32;;;;;;;;;;;;;;;22.04;31.13;97575.84;5036494;28;883;-78
2023/06/13 06:25:57;;;;;;;;;;;;;;;22.30;30.46;97573.72;5036936;28;1981;-78
2023/06/13 06:28:23;;;;;;;;;;;;;;;22.34;30.28;97577.22;5015421;28;984;-77
2023/06/13 06:30:48;;;;;;;;;;;;;;;22.41;30.51;97572.53;5016669;28;961;-78
2023/06/13 06:33:14;;;;;;;;;;;;;;;22.36;30.50;97577.56;4998929;28;1013;-78
2023/06/13 06:35:39;;;;;;;;;;;;;;;22.22;30.39;97583.72;5016719;28;1096;-78
2023/06/13 06:38:05;;;;;;;;;;;;;;;22.35;30.12;97581.63;4999528;28;960;-78
2023/06/13 06:40:30;;;;;;;;;;;;;;;22.36;30.00;97596.59;4999767;28;1146;-77
2023/06/13 06:42:56;;;;;;;;;;;;;;;22.10;30.92;97584.53;5016636;28;975;-76
2023/06/13 06:45:27;;;;;;;;;;;;;;;22.21;30.76;97582.16;5016025;28;1914;-77
2023/06/13 06:47:52;;;;;;;;;;;;;;;22.22;30.66;97583.72;4983106;28;1322;-77
2023/06/13 06:50:18;;;;;;;;;;;;;;;22.01;30.87;97578.78;4980256;28;1058;-77
2023/06/13 06:52:43;;;;;;;;;;;;;;;22.42;30.36;97586.25;4996587;28;992;-77
2023/06/13 06:55:09;;;;;;;;;;;;;;;22.43;30.36;97576.50;4979839;28;968;-77
2023/06/13 06:57:35;;;;;;;;;;;;;;;22.29;30.58;97574.19;4980637;28;993;-77
2023/06/13 07:00:00;;;;;;;;;;;;;;;22.44;30.43;97574.47;5009996;28;976;-77
2023/06/13 07:02:26;;;;;;;;;;;;;;;22.28;30.76;97579.06;5019649;28;1108;-77
2023/06/13 07:04:51;;;;;;;;;;;;;;;22.34;30.39;97579.28;5019292;28;1971;-77
2023/06/13 07:07:17;;;;;;;;;;;;;;;22.26;30.54;97584.41;5003420;28;1159;-78
2023/06/13 07:09:43;;;;;;;;;;;;;;;22.20;30.88;97574.91;5035618;28;936;-77
2023/06/13 07:12:08;;;;;;;;;;;;;;;22.40;30.77;97576.63;5019564;28;1115;-77
2023/06/13 07:14:36;;;;;;;;;;;;;;;22.27;30.88;97562.50;5018812;28;932;-77
2023/06/13 07:17:02;;;;;;;;;;;;;;;22.42;30.69;97574.13;4960953;28;1176;-77
2023/06/13 07:19:28;;;;;;;;;;;;;;;22.47;30.69;97579.19;4960297;28;1061;-78
2023/06/13 07:21:54;;;;;;;;;;;;;;;22.26;31.05;97573.06;4976905;28;1071;-77
2023/06/13 07:24:19;;;;;;;;;;;;;;;22.39;30.87;97569.41;4960497;28;1969;-77
2023/06/13 07:26:45;;;;;;;;;;;;;;;22.35;30.83;97573.13;4947161;28;1121;-77
2023/06/13 07:29:10;;;;;;;;;;;;;;;22.27;31.08;97568.97;4967368;28;1221;-78
2023/06/13 07:31:36;;;;;;;;;;;;;;;22.15;31.17;97566.97;4999780;28;1106;-77
2023/06/13 07:34:01;;;;;;;;;;;;;;;22.21;31.34;97561.53;4983122;28;1129;-77
2023/06/13 07:36:27;;;;;;;;;;;;;;;22.38;30.84;97559.28;4967453;28;1319;-77
2023/06/13 07:38:52;;;;;;;;;;;;;;;22.53;30.71;97566.00;4999497;28;1071;-78
2023/06/13 07:41:18;;;;;;;;;;;;;;;22.34;31.07;97567.94;4999947;28;1188;-77
2023/06/13 07:43:44;;;;;;;;;;;;;;;22.36;31.17;97566.22;4982769;28;1154;-77
2023/06/13 07:46:09;;;;;;;;;;;;;;;22.32;31.09;97559.09;4999708;28;1971;-77
2023/06/13 07:48:35;;;;;;;;;;;;;;;22.31;31.22;97566.81;5029856;28;853;-78
2023/06/13 07:51:00;;;;;;;;;;;;;;;22.45;30.95;97567.53;5040218;28;957;-77
2023/06/13 07:53:26;;;;;;;;;;;;;;;22.59;30.76;97567.81;5022947;28;1228;-77
2023/06/13 07:55:54;;;;;;;;;;;;;;;22.42;31.15;97565.63;5023683;28;1417;-78
2023/06/13 07:58:20;;;;;;;;;;;;;;;22.65;30.73;97570.06;5039298;28;839;-78
2023/06/13 08:00:45;;;;;;;;;;;;;;;22.60;31.20;97575.06;5023822;28;1120;-78
2023/06/13 08:03:11;;;;;;;;;;;;;;;22.40;31.38;97571.75;5039915;28;925;-78
2023/06/13 08:05:36;;;;;;;;;;;;;;;22.53;31.07;97574.50;5023512;28;1981;-78
2023/06/13 08:08:02;;;;;;;;;;;;;;;22.65;31.06;97570.84;5040287;28;951;-78
2023/06/13 08:10:28;;;;;;;;;;;;;;;22.48;31.33;97572.28;5039657;28;924;-77
2023/06/13 08:12:53;;;;;;;;;;;;;;;22.58;31.22;97571.09;5039252;28;906;-78
2023/06/13 08:15:20;;;;;;;;;;;;;;;22.34;31.55;97568.72;5039464;28;1429;-77
2023/06/13 08:17:45;;;;;;;;;;;;;;;22.39;31.79;97560.88;5040782;28;868;-77
2023/06/13 08:20:11;;;;;;;;;;;;;;;22.35;31.66;97553.28;5039206;28;1022;-78
2023/06/13 08:22:37;;;;;;;;;;;;;;;22.15;32.32;97557.69;5039470;28;838;-77
2023/06/13 08:25:02;;;;;;;;;;;;;;;22.43;31.83;97555.84;5022607;28;1983;-78
2023/06/13 08:27:28;;;;;;;;;;;;;;;22.51;31.81;97552.31;5039821;28;931;-78
2023/06/13 08:29:54;;;;;;;;;;;;;;;22.53;31.44;97551.84;5022303;28;1127;-77
2023/06/13 08:32:20;;;;;;;;;;;;;;;22.43;31.79;97553.03;5006755;28;1452;-77
2023/06/13 08:34:45;;;;;;;;;;;;;;;22.18;32.32;97554.75;5038404;28;923;-77
2023/06/13 08:37:11;;;;;;;;;;;;;;;22.13;32.23;97555.34;5039121;28;1010;-77
2023/06/13 08:39:37;;;;;;;;;;;;;;;22.47;31.50;97553.69;5038793;28;1162;-78
2023/06/13 08:42:02;;;;;;;;;;;;;;;22.40;31.73;97545.47;5017470;28;1054;-77
2023/06/13 08:44:28;;;;;;;;;;;;;;;22.37;31.94;97550.00;5001061;28;1993;-78
2023/06/13 08:46:53;;;;;;;;;;;;;;;22.25;32.16;97540.31;5001678;28;988;-78
2023/06/13 08:49:19;;;;;;;;;;;;;;;22.41;31.80;97536.47;4985105;28;1136;-77
2023/06/13 08:51:45;;;;;;;;;;;;;;;22.39;31.91;97546.72;5001828;28;1066;-78
2023/06/13 08:54:12;;;;;;;;;;;;;;;22.23;32.05;97550.53;4985037;28;1210;-77
2023/06/13 08:56:40;;;;;;;;;;;;;;;22.67;31.50;97547.69;4986235;28;1341;-78
2023/06/13 08:59:08;;;;;;;;;;;;;;;22.30;32.01;97536.88;4985118;28;1105;-77
2023/06/13 09:01:37;;;;;;;;;;;;;;;22.47;31.68;97548.00;5001358;28;1675;-77
2023/06/13 09:04:03;;;;;;;;;;;;;;;22.36;31.94;97548.41;4985213;28;1301;-78
2023/06/13 09:06:31;;;;;;;;;;;;;;;22.25;31.90;97531.81;4997970;28;1903;-77
2023/06/13 09:08:56;;;;;;;;;;;;;;;22.43;31.49;97530.34;4981462;28;1335;-78
2023/06/13 09:11:22;;;;;;;;;;;;;;;22.39;31.67;97529.72;4965217;28;935;-78
2023/06/13 09:13:47;;;;;;;;;;;;;;;22.41;31.50;97532.88;5029521;28;1134;-78
2023/06/13 09:16:13;;;;;;;;;;;;;;;22.39;31.68;97535.38;5021138;28;999;-77
2023/06/13 09:18:42;;;;;;;;;;;;;;;22.60;31.17;97534.56;5019920;28;1144;-77
2023/06/13 09:21:08;;;;;;;;;;;;;;;22.32;31.70;97531.53;4981899;28;1139;-78
2023/06/13 09:23:34;;;;;;;;;;;;;;;22.54;31.03;97525.09;4964798;28;956;-77
2023/06/13 09:26:00;;;;;;;;;;;;;;;22.50;31.32;97522.38;4965860;28;1977;-78
2023/06/13 09:28:29;;;;;;;;;;;;;;;22.47;31.30;97525.34;4980798;28;1219;-78
2023/06/13 09:30:56;;;;;;;;;;;;;;;22.49;31.56;97528.53;4981802;28;967;-77
2023/06/13 09:33:22;;;;;;;;;;;;;;;22.43;31.70;97524.69;4964551;28;1004;-78
2023/06/13 09:35:47;;;;;;;;;;;;;;;22.29;32.04;97529.63;4981483;28;1059;-78
2023/06/13 09:38:13;;;;;;;;;;;;;;;22.67;31.48;97531.44;4980546;28;976;-78
2023/06/13 09:40:39;;;;;;;;;;;;;;;22.51;31.61;97531.66;4997434;28;1627;-78
2023/06/13 09:43:04;;;;;;;;;;;;;;;22.62;31.34;97526.38;4983708;28;1583;-78
2023/06/13 09:45:30;;;;;;;;;;;;;;;22.58;31.47;97514.38;4980724;28;1975;-78
2023/06/13 09:47:55;;;;;;;;;;;;;;;22.49;31.53;97517.97;4980568;28;1418;-77
2023/06/13 09:50:21;;;;;;;;;;;;;;;22.47;31.49;97508.31;4996412;28;1126;-77
2023/06/13 09:52:47;;;;;;;;;;;;;;;22.48;31.57;97509.91;4996644;28;1148;-77
2023/06/13 09:55:12;;;;;;;;;;;;;;;22.53;31.38;97509.31;4980307;28;1629;-77
2023/06/13 09:57:38;;;;;;;;;;;;;;;22.62;31.59;97515.03;4999598;28;1520;-77
2023/06/13 10:00:07;;;;;;;;;;;;;;;22.61;31.44;97521.97;5033443;28;931;-77
2023/06/13 10:02:36;;;;;;;;;;;;;;;22.54;31.63;97508.88;5033411;28;897;-78
2023/06/13 10:05:02;;;;;;;;;;;;;;;22.38;31.90;97517.56;5015543;28;1875;-77
2023/06/13 10:07:28;;;;;;;;;;;;;;;22.38;32.25;97516.75;5000180;28;1097;-78
2023/06/13 10:09:54;;;;;;;;;;;;;;;22.51;31.63;97517.50;5016347;28;945;-77
2023/06/13 10:12:21;;;;;;;;;;;;;;;22.56;31.40;97508.38;5016591;28;929;-77
2023/06/13 10:14:51;;;;;;;;;;;;;;;22.56;31.70;97512.00;5015986;28;1703;-78
2023/06/13 10:17:18;;;;;;;;;;;;;;;22.34;32.07;97503.53;5019312;28;2027;-77
2023/06/13 10:19:44;;;;;;;;;;;;;;;22.64;31.74;97515.38;4986498;28;918;-78
2023/06/13 10:22:10;;;;;;;;;;;;;;;22.59;31.66;97505.44;5019852;28;1018;-78
2023/06/13 10:24:36;;;;;;;;;;;;;;;22.33;31.90;97498.34;5019255;28;1902;-77
2023/06/13 10:27:02;;;;;;;;;;;;;;;22.60;31.70;97506.22;4987158;28;1596;-77
2023/06/13 10:29:33;;;;;;;;;;;;;;;22.57;31.64;97507.13;5018573;28;1017;-77
2023/06/13 10:32:15;;;;;;;;;;;;;;;22.70;31.32;97498.56;5019596;28;1023;-77
2023/06/13 10:35:01;;;;;;;;;;;;;;;22.60;31.91;97500.53;5018894;28;931;-78
2023/06/13 10:37:45;;;;;;;;;;;;;;;22.62;31.56;97493.13;5017464;28;1168;-77
2023/06/13 10:40:16;;;;;;;;;;;;;;;22.56;31.65;97511.22;5016821;28;1442;-77
2023/06/13 10:42:44;;;;;;;;;;;;;;;22.58;31.72;97508.69;4996199;28;932;-78
2023/06/13 10:45:13;;;;;;;;;;;;;;;22.70;31.44;97493.66;4979783;28;1906;-77
2023/06/13 10:47:38;;;;;;;;;;;;;;;22.58;31.39;97497.38;4980107;28;1233;-77
2023/06/13 10:50:04;;;;;;;;;;;;;;;22.48;31.96;97504.22;4979391;28;1004;-77
2023/06/13 10:52:30;;;;;;;;;;;;;;;22.42;32.36;97500.41;4979832;28;949;-77
2023/06/13 10:54:58;;;;;;;;;;;;;;;22.32;32.20;97497.53;4979182;28;928;-78
2023/06/13 10:57:43;;;;;;;;;;;;;;;22.35;32.43;97490.94;4963979;28;1157;-77
2023/06/13 11:00:11;;;;;;;;;;;;;;;22.63;31.68;97496.75;4995873;28;914;-78
2023/06/13 11:02:37;;;;;;;;;;;;;;;22.76;31.43;97483.28;4965488;28;1002;-77
2023/06/13 11:05:02;;;;;;;;;;;;;;;22.51;31.63;97491.97;4967468;28;1963;-77
2023/06/13 11:07:28;;;;;;;;;;;;;;;22.51;31.54;97480.63;4968082;28;1016;-77
2023/06/13 11:10:03;;;;;;;;;;;;;;;22.58;31.69;97486.03;4967303;28;1265;-76
2023/06/13 11:12:28;;;;;;;;;;;;;;;22.58;31.60;97486.03;4984169;28;1208;-77
2023/06/13 11:14:55;;;;;;;;;;;;;;;22.33;31.76;97489.84;5020325;28;963;-77
2023/06/13 11:17:21;;;;;;;;;;;;;;;22.40;31.72;97491.59;5020016;28;905;-77
2023/06/13 11:19:46;;;;;;;;;;;;;;;22.48;31.69;97490.06;5002613;28;1322;-77
2023/06/13 11:22:15;;;;;;;;;;;;;;;22.54;31.51;97477.66;5019504;28;990;-77
2023/06/13 11:24:41;;;;;;;;;;;;;;;22.50;31.69;97487.56;4986678;28;1965;-77
2023/06/13 11:27:07;;;;;;;;;;;;;;;22.51;31.83;97474.97;5002847;28;956;-77
2023/06/13 11:29:33;;;;;;;;;;;;;;;22.50;31.60;97484.72;5002829;28;975;-77
2023/06/13 11:32:00;;;;;;;;;;;;;;;22.35;31.81;97482.44;5003251;28;1020;-77
2023/06/13 11:34:25;;;;;;;;;;;;;;;22.59;31.65;97484.78;4991944;28;1569;-77
2023/06/13 11:36:53;;;;;;;;;;;;;;;22.83;31.00;97471.66;4960222;29;1179;-77
2023/06/13 11:39:26;;;;;;;;;;;;;;;22.63;31.47;97482.59;4944296;28;1117;-77
2023/06/13 11:41:52;;;;;;;;;;;;;;;22.56;31.54;97477.19;4960518;28;1062;-77
2023/06/13 11:44:18;;;;;;;;;;;;;;;22.55;31.66;97481.28;4927937;29;1075;-78
2023/06/13 11:46:44;;;;;;;;;;;;;;;22.65;31.63;97477.25;4929137;28;1919;-77
2023/06/13 11:49:14;;;;;;;;;;;;;;;22.49;31.67;97471.81;4960551;28;1036;-77
2023/06/13 11:51:41;;;;;;;;;;;;;;;22.39;31.75;97478.69;4963977;28;1005;-78
2023/06/13 11:54:07;;;;;;;;;;;;;;;22.41;32.04;97470.50;4947638;28;1178;-77
2023/06/13 11:56:36;;;;;;;;;;;;;;;22.28;32.05;97459.25;4963752;28;1239;-77
2023/06/13 11:59:13;;;;;;;;;;;;;;;22.43;31.97;97476.47;4963409;28;900;-78
2023/06/13 12:01:38;;;;;;;;;;;;;;;22.36;31.89;97464.16;4963614;28;1180;-77
2023/06/13 12:04:04;;;;;;;;;;;;;;;22.48;31.73;97458.88;4963017;28;1387;-77
2023/06/13 12:06:29;;;;;;;;;;;;;;;22.62;31.43;97458.31;4978950;28;1918;-79
2023/06/13 12:08:55;;;;;;;;;;;;;;;22.68;31.20;97453.63;4962372;28;921;-77
2023/06/13 12:11:21;;;;;;;;;;;;;;;22.68;31.51;97456.47;4946653;28;1087;-77
2023/06/13 12:13:56;;;;;;;;;;;;;;;22.59;31.55;97450.75;4960114;28;1060;-78
2023/06/13 12:16:23;;;;;;;;;;;;;;;22.73;31.20;97455.84;5019996;28;875;-77
2023/06/13 12:18:54;;;;;;;;;;;;;;;22.76;31.17;97454.94;5018434;28;847;-77
2023/06/13 12:21:25;;;;;;;;;;;;;;;22.59;31.56;97454.38;5019295;28;898;-77
2023/06/13 12:23:51;;;;;;;;;;;;;;;22.73;31.16;97447.34;5038499;28;1549;-78
2023/06/13 12:26:17;;;;;;;;;;;;;;;22.62;31.50;97450.59;5040313;28;1980;-78
2023/06/13 12:28:44;;;;;;;;;;;;;;;22.76;31.44;97445.63;5039526;28;872;-77
2023/06/13 12:31:10;;;;;;;;;;;;;;;22.56;31.67;97448.84;5038806;28;1049;-77
2023/06/13 12:33:36;;;;;;;;;;;;;;;22.61;31.52;97451.06;5017067;28;1000;-78
2023/06/13 12:36:05;;;;;;;;;;;;;;;22.44;31.87;97442.03;5001550;28;916;-77
2023/06/13 12:38:31;;;;;;;;;;;;;;;22.67;31.53;97437.09;5000786;28;914;-77
2023/06/13 12:40:56;;;;;;;;;;;;;;;22.54;31.71;97442.88;5001566;28;1073;-77
2023/06/13 12:43:24;;;;;;;;;;;;;;;22.69;31.44;97446.72;5017081;28;970;-78
2023/06/13 12:45:49;;;;;;;;;;;;;;;22.84;31.13;97441.25;5017467;28;1910;-77
2023/06/13 12:48:16;;;;;;;;;;;;;;;22.74;31.26;97443.28;4984558;28;959;-78
2023/06/13 12:50:42;;;;;;;;;;;;;;;22.72;31.54;97439.31;5001308;28;915;-78
2023/06/13 12:53:07;;;;;;;;;;;;;;;22.40;32.11;97434.91;5000494;28;1155;-77
2023/06/13 12:55:33;;;;;;;;;;;;;;;22.51;31.96;97440.94;5000955;28;880;-77
2023/06/13 12:58:22;;;;;;;;;;;;;;;22.60;31.55;97438.16;4978267;28;1267;-78